Ouray, Colorado
Current Conditions -  °F | °C
As of 12:15 AM on Monday 22 Dec 2014 (Local Time) from KTEX Reporting Station
Overcast Overcast  
Wind Chill: 20°   Ceiling: 1300
Heat Index: 33°   Visibility: 7mi
Dew Point: 31°   Wind: 23mph
Humidity: 92%   Direction: 260°W
Pressure: 29.97"   Gusts: 40mph
Location:  38.02°N, 107.67°W
Report Text: KTEX 220715Z AUTO 26020G35KT 7SM SCT007 BKN013 OVC020 01/M01 A2997 RMK AO2 T00051007
Loading
Personal Weather Stations






























Interactive Weather Map New forecast layout! Learn more

10-Day Weather Forecast

Advertisements
Track Severe Weather on mobile